createdAt,value
2017-09-23T00:00:54.823Z,91.30
2017-09-23T00:03:22.256Z,91.40
2017-09-23T00:05:50.465Z,91.20
2017-09-23T00:08:17.893Z,91.20
2017-09-23T00:10:45.324Z,91.30
2017-09-23T00:13:12.767Z,91.30
2017-09-23T00:15:40.201Z,91.30
2017-09-23T00:18:08.404Z,91.00
2017-09-23T00:20:35.836Z,91.00
2017-09-23T00:23:03.278Z,91.10
2017-09-23T00:25:30.722Z,91.10
2017-09-23T00:27:58.141Z,91.10
2017-09-23T00:30:26.340Z,90.90
2017-09-23T00:32:53.799Z,91.10
2017-09-23T00:35:21.224Z,91.10
2017-09-23T00:37:48.657Z,91.10
2017-09-23T00:40:16.089Z,91.10
2017-09-23T00:42:43.516Z,91.10
2017-09-23T00:45:11.722Z,91.30
2017-09-23T00:47:39.161Z,91.30
2017-09-23T00:50:06.583Z,91.30
2017-09-23T00:52:34.019Z,91.30
2017-09-23T00:55:01.456Z,91.40
2017-09-23T00:57:28.880Z,91.20
2017-09-23T00:59:56.314Z,91.30
2017-09-23T01:02:23.740Z,91.30
2017-09-23T01:04:51.174Z,91.40
2017-09-23T01:07:18.637Z,91.40
2017-09-23T01:09:46.070Z,91.60
2017-09-23T01:12:13.500Z,91.60
2017-09-23T01:14:40.937Z,91.60
2017-09-23T01:17:08.373Z,91.70
2017-09-23T01:19:35.818Z,91.70
2017-09-23T01:22:03.252Z,92.00
2017-09-23T01:24:30.687Z,91.90
2017-09-23T01:26:58.884Z,92.40
2017-09-23T01:29:26.329Z,92.10
2017-09-23T01:31:54.548Z,92.10
2017-09-23T01:34:21.973Z,92.10
2017-09-23T01:36:49.400Z,92.10
2017-09-23T01:39:16.832Z,92.20
2017-09-23T01:41:44.268Z,92.20
2017-09-23T01:44:11.713Z,92.10
2017-09-23T01:46:39.144Z,92.10
2017-09-23T01:49:07.352Z,92.10
2017-09-23T01:51:34.776Z,92.10
2017-09-23T01:54:02.979Z,91.60
2017-09-23T01:56:31.413Z,91.60
2017-09-23T01:58:58.851Z,91.50
2017-09-23T02:01:26.280Z,91.50
2017-09-23T02:03:53.714Z,91.40
2017-09-23T02:06:21.913Z,91.70
2017-09-23T02:08:49.344Z,91.70
2017-09-23T02:11:16.776Z,91.60
2017-09-23T02:13:44.982Z,91.50
2017-09-23T02:16:12.410Z,91.50
2017-09-23T02:18:40.608Z,91.50
2017-09-23T02:21:08.040Z,91.50
2017-09-23T02:23:36.237Z,91.60
2017-09-23T02:26:03.677Z,91.50
2017-09-23T02:28:31.868Z,91.30
2017-09-23T02:30:59.305Z,91.30
2017-09-23T02:33:27.506Z,91.30
2017-09-23T02:35:54.939Z,91.30
2017-09-23T02:38:23.129Z,91.40
2017-09-23T02:40:50.575Z,91.30
2017-09-23T02:43:18.756Z,91.20
2017-09-23T02:45:46.194Z,91.20
2017-09-23T02:48:14.392Z,91.00
2017-09-23T02:50:41.829Z,91.00
2017-09-23T02:53:10.033Z,91.00
2017-09-23T02:55:37.462Z,91.00
2017-09-23T02:58:05.661Z,91.00
2017-09-23T03:00:33.101Z,90.90
2017-09-23T03:03:00.532Z,91.10
2017-09-23T03:05:27.973Z,91.10
2017-09-23T03:07:55.408Z,91.00
2017-09-23T03:10:22.860Z,91.30
2017-09-23T03:12:50.285Z,91.40
2017-09-23T03:15:18.488Z,91.30
2017-09-23T03:17:45.953Z,91.30
2017-09-23T03:20:14.128Z,91.40
2017-09-23T03:22:41.561Z,91.40
2017-09-23T03:25:08.992Z,91.30
2017-09-23T03:27:37.196Z,91.50
2017-09-23T03:30:04.630Z,91.50
2017-09-23T03:32:32.824Z,91.90
2017-09-23T03:35:00.259Z,91.90
2017-09-23T03:37:28.470Z,92.00
2017-09-23T03:39:55.895Z,92.00
2017-09-23T03:42:24.103Z,92.00
2017-09-23T03:44:51.535Z,92.00
2017-09-23T03:47:19.740Z,91.90
2017-09-23T03:49:47.160Z,91.90
2017-09-23T03:52:15.371Z,92.10
2017-09-23T03:54:42.796Z,92.10
2017-09-23T03:57:10.996Z,91.70
2017-09-23T03:59:38.424Z,91.70
2017-09-23T04:02:05.869Z,91.60
2017-09-23T04:04:34.065Z,91.80
2017-09-23T04:07:01.496Z,91.70
2017-09-23T04:09:29.693Z,91.90
2017-09-23T04:11:57.129Z,91.80
2017-09-23T04:14:25.329Z,92.10
2017-09-23T04:16:52.774Z,92.00
2017-09-23T04:19:20.967Z,92.00
2017-09-23T04:21:48.392Z,92.00
2017-09-23T04:24:16.596Z,92.00
2017-09-23T04:26:44.020Z,92.00
2017-09-23T04:29:12.225Z,91.80
2017-09-23T04:31:39.655Z,91.70
2017-09-23T04:34:07.856Z,91.80
2017-09-23T04:36:35.296Z,91.80
2017-09-23T04:39:03.484Z,91.60
2017-09-23T04:41:30.931Z,91.50
2017-09-23T04:43:59.134Z,91.60
2017-09-23T04:46:26.572Z,91.60
2017-09-23T04:48:54.100Z,91.50
2017-09-23T04:51:21.525Z,91.40
2017-09-23T04:53:48.967Z,91.40
2017-09-23T04:56:16.399Z,91.30
2017-09-23T04:58:43.848Z,91.20
2017-09-23T05:01:12.048Z,91.20
2017-09-23T05:03:39.484Z,91.20
2017-09-23T05:06:06.914Z,91.30
2017-09-23T05:08:34.352Z,91.30
2017-09-23T05:11:01.804Z,91.60
2017-09-23T05:13:29.294Z,91.30
2017-09-23T05:15:59.520Z,91.50
2017-09-23T05:18:27.748Z,91.40
2017-09-23T05:21:04.270Z,91.40
2017-09-23T05:23:32.840Z,91.40
2017-09-23T05:26:00.497Z,91.40
2017-09-23T05:28:27.967Z,91.10
2017-09-23T05:30:55.398Z,91.20
2017-09-23T05:33:22.819Z,91.50
2017-09-23T05:35:50.361Z,91.50
2017-09-23T05:38:17.784Z,91.40
2017-09-23T05:40:45.249Z,91.40
2017-09-23T05:43:13.450Z,91.20
2017-09-23T05:45:40.907Z,91.20
2017-09-23T05:48:08.377Z,91.20
2017-09-23T05:50:35.826Z,91.30
2017-09-23T05:53:03.257Z,91.40
2017-09-23T05:55:31.466Z,91.40
2017-09-23T05:57:58.890Z,91.40
2017-09-23T06:00:27.095Z,91.40
2017-09-23T06:02:54.515Z,91.30
2017-09-23T06:05:25.764Z,91.80
2017-09-23T06:07:53.965Z,91.30
2017-09-23T06:10:21.405Z,91.30
2017-09-23T06:12:49.591Z,91.50
2017-09-23T06:15:17.025Z,91.50
2017-09-23T06:17:45.220Z,91.60
2017-09-23T06:20:12.658Z,91.60
2017-09-23T06:22:40.856Z,91.70
2017-09-23T06:25:10.349Z,91.70
2017-09-23T06:27:38.573Z,92.10
2017-09-23T06:30:06.011Z,91.80
2017-09-23T06:32:33.456Z,91.80
2017-09-23T06:35:00.884Z,91.80
2017-09-23T06:37:29.133Z,91.60
2017-09-23T06:39:56.554Z,91.60
2017-09-23T06:42:24.012Z,91.80
2017-09-23T06:44:51.437Z,91.80
2017-09-23T06:47:19.645Z,91.80
2017-09-23T06:49:47.078Z,91.70
2017-09-23T06:52:14.527Z,91.50
2017-09-23T06:54:43.710Z,91.50
2017-09-23T06:57:11.913Z,91.70
2017-09-23T06:59:39.349Z,91.40
2017-09-23T07:02:07.561Z,91.60
2017-09-23T07:04:35.005Z,91.60
2017-09-23T07:07:02.444Z,91.80
2017-09-23T07:09:30.632Z,91.30
2017-09-23T07:11:58.073Z,91.30
2017-09-23T07:14:26.300Z,91.40
2017-09-23T07:16:53.710Z,91.40
2017-09-23T07:19:21.149Z,91.20
2017-09-23T07:21:49.369Z,91.80
2017-09-23T07:24:16.796Z,91.50
2017-09-23T07:26:45.004Z,91.50
2017-09-23T07:29:12.451Z,91.50
2017-09-23T07:31:39.901Z,91.10
2017-09-23T07:34:07.333Z,91.00
2017-09-23T07:36:35.527Z,90.90
2017-09-23T07:39:02.964Z,90.60
2017-09-23T07:41:31.172Z,91.00
2017-09-23T07:43:58.634Z,91.00
2017-09-23T07:46:26.066Z,90.80
2017-09-23T07:48:54.268Z,84.80
2017-09-23T07:51:21.708Z,84.70
2017-09-23T07:53:49.155Z,82.40
2017-09-23T07:56:17.336Z,79.60
2017-09-23T07:58:44.793Z,79.40
2017-09-23T08:01:12.225Z,75.10
2017-09-23T08:03:40.443Z,71.30
2017-09-23T08:06:07.868Z,71.20
2017-09-23T08:08:36.076Z,68.60
2017-09-23T08:11:03.509Z,68.60
2017-09-23T08:13:30.976Z,68.80
2017-09-23T08:15:58.417Z,66.10
2017-09-23T08:18:25.883Z,62.80
2017-09-23T08:20:53.320Z,62.80
2017-09-23T08:23:21.533Z,60.90
2017-09-23T08:25:48.969Z,60.90
2017-09-23T08:28:16.488Z,62.10
2017-09-23T08:30:43.925Z,62.50
2017-09-23T08:33:11.376Z,62.60
2017-09-23T08:35:38.827Z,60.50
2017-09-23T08:38:06.257Z,60.60
2017-09-23T08:40:33.697Z,60.60
2017-09-23T08:43:01.891Z,58.30
2017-09-23T08:45:29.341Z,58.20
2017-09-23T08:47:56.776Z,60.10
2017-09-23T08:50:24.975Z,60.90
2017-09-23T08:52:52.410Z,60.80
2017-09-23T08:55:20.626Z,63.30
2017-09-23T08:57:48.056Z,63.30
2017-09-23T09:00:15.501Z,62.10
2017-09-23T09:02:43.847Z,62.50
2017-09-23T09:05:11.276Z,62.50
2017-09-23T09:07:38.741Z,61.40
2017-09-23T09:10:06.236Z,61.70
2017-09-23T09:12:33.664Z,63.60
2017-09-23T09:15:01.117Z,63.00
2017-09-23T09:17:28.553Z,63.00
2017-09-23T09:19:56.150Z,62.60
2017-09-23T09:22:23.584Z,61.90
2017-09-23T09:24:51.078Z,60.20
2017-09-23T09:27:18.508Z,59.90
2017-09-23T09:29:45.948Z,63.50
2017-09-23T09:32:13.386Z,61.40
2017-09-23T09:34:40.844Z,60.40
2017-09-23T09:37:08.272Z,60.40
2017-09-23T09:39:35.710Z,61.60
2017-09-23T09:42:03.144Z,65.60
2017-09-23T09:44:30.617Z,61.50
2017-09-23T09:46:58.053Z,63.10
2017-09-23T09:49:25.497Z,64.20
2017-09-23T09:51:52.924Z,60.80
2017-09-23T09:54:21.120Z,60.90
2017-09-23T09:56:48.562Z,60.70
2017-09-23T09:59:16.842Z,64.10
2017-09-23T10:01:45.042Z,60.20
2017-09-23T10:04:13.485Z,60.30
2017-09-23T10:06:41.770Z,58.90
2017-09-23T10:09:09.966Z,61.60
2017-09-23T10:11:38.418Z,61.60
2017-09-23T10:14:06.626Z,65.60
2017-09-23T10:16:34.065Z,65.50
2017-09-23T10:19:01.488Z,59.00
2017-09-23T10:21:28.933Z,61.60
2017-09-23T10:23:56.416Z,61.10
2017-09-23T10:26:24.621Z,59.80
2017-09-23T10:28:52.050Z,59.80
2017-09-23T10:31:20.261Z,59.50
2017-09-23T10:33:47.702Z,59.50
2017-09-23T10:36:15.157Z,57.80
2017-09-23T10:38:42.592Z,58.90
2017-09-23T10:41:10.867Z,57.10
2017-09-23T10:43:39.064Z,56.90
2017-09-23T10:46:06.505Z,56.90
2017-09-23T10:48:34.717Z,57.00
2017-09-23T10:51:02.162Z,57.00
2017-09-23T10:53:29.593Z,57.40
2017-09-23T10:55:57.806Z,55.80
2017-09-23T10:58:25.315Z,55.80
2017-09-23T11:00:53.525Z,57.60
2017-09-23T11:03:20.968Z,57.60
2017-09-23T11:05:48.413Z,57.00
2017-09-23T11:08:16.632Z,54.90
2017-09-23T11:10:44.078Z,54.90
2017-09-23T11:13:11.514Z,56.30
2017-09-23T11:15:38.948Z,54.80
2017-09-23T11:18:06.396Z,54.20
2017-09-23T11:20:33.861Z,54.10
2017-09-23T11:23:01.313Z,55.00
2017-09-23T11:25:28.739Z,54.20
2017-09-23T11:27:56.958Z,54.20
2017-09-23T11:30:24.395Z,54.10
2017-09-23T11:32:51.840Z,56.20
2017-09-23T11:35:19.278Z,56.70
2017-09-23T11:37:46.737Z,60.10
2017-09-23T11:40:14.168Z,57.80
2017-09-23T11:42:41.605Z,57.90
2017-09-23T11:45:10.799Z,58.30
2017-09-23T11:47:38.996Z,60.60
2017-09-23T11:50:06.448Z,60.80
2017-09-23T11:52:34.645Z,60.00
2017-09-23T11:55:02.087Z,59.90
2017-09-23T11:57:29.517Z,61.00
2017-09-23T11:59:57.733Z,60.90
2017-09-23T12:02:25.176Z,60.90
2017-09-23T12:04:52.605Z,57.30
2017-09-23T12:07:20.809Z,57.60
2017-09-23T12:09:48.289Z,57.60
2017-09-23T12:12:15.716Z,60.60
2017-09-23T12:14:43.164Z,61.00
2017-09-23T12:17:10.613Z,61.30
2017-09-23T12:19:38.847Z,57.00
2017-09-23T12:22:06.288Z,57.00
2017-09-23T12:24:33.798Z,60.60
2017-09-23T12:27:01.998Z,59.70
2017-09-23T12:29:29.433Z,59.60
2017-09-23T12:31:57.633Z,58.10
2017-09-23T12:34:25.093Z,58.10
2017-09-23T12:36:52.509Z,60.50
2017-09-23T12:39:19.941Z,61.40
2017-09-23T12:41:47.387Z,62.00
2017-09-23T12:44:14.829Z,62.40
2017-09-23T12:46:42.267Z,62.80
2017-09-23T12:49:09.704Z,65.30
2017-09-23T12:51:37.904Z,63.40
2017-09-23T12:54:05.347Z,63.40
2017-09-23T12:56:33.608Z,64.40
2017-09-23T12:59:01.812Z,67.00
2017-09-23T13:01:29.305Z,66.90
2017-09-23T13:03:56.753Z,65.80
2017-09-23T13:06:24.181Z,66.90
2017-09-23T13:08:51.613Z,68.20
2017-09-23T13:11:19.889Z,66.30
2017-09-23T13:13:48.100Z,68.50
2017-09-23T13:16:15.539Z,68.50
2017-09-23T13:18:42.976Z,69.00
2017-09-23T13:21:10.413Z,67.80
2017-09-23T13:23:37.849Z,67.50
2017-09-23T13:26:05.306Z,68.20
2017-09-23T13:28:32.747Z,69.90
2017-09-23T13:31:00.217Z,70.30
2017-09-23T13:33:27.644Z,68.70
2017-09-23T13:35:55.096Z,69.30
2017-09-23T13:38:22.524Z,71.00
2017-09-23T13:40:49.948Z,72.00
2017-09-23T13:43:17.397Z,70.70
2017-09-23T13:45:44.839Z,71.30
2017-09-23T13:48:12.281Z,67.10
2017-09-23T13:50:39.713Z,67.10
2017-09-23T13:53:07.150Z,66.30
2017-09-23T13:55:34.589Z,67.30
2017-09-23T13:58:02.022Z,65.40
2017-09-23T14:00:29.461Z,65.10
2017-09-23T14:02:56.929Z,65.80
2017-09-23T14:05:25.375Z,63.80
2017-09-23T14:07:53.591Z,67.90
2017-09-23T14:10:21.037Z,67.60
2017-09-23T14:12:49.236Z,66.20
2017-09-23T14:15:17.485Z,66.20
2017-09-23T14:17:44.927Z,69.00
2017-09-23T14:20:13.131Z,68.90
2017-09-23T14:22:40.569Z,68.80
2017-09-23T14:25:08.009Z,68.00
2017-09-23T14:27:36.390Z,66.60
2017-09-23T14:30:04.603Z,69.20
2017-09-23T14:32:32.046Z,69.20
2017-09-23T14:34:59.478Z,68.90
2017-09-23T14:37:27.769Z,66.60
2017-09-23T14:39:55.206Z,66.50
2017-09-23T14:42:23.409Z,69.10
2017-09-23T14:44:50.884Z,69.10
2017-09-23T14:47:18.411Z,69.10
2017-09-23T14:49:46.616Z,67.80
2017-09-23T14:52:14.048Z,67.00
2017-09-23T14:54:41.490Z,67.70
2017-09-23T14:57:11.704Z,69.10
2017-09-23T14:59:39.226Z,69.10
2017-09-23T15:02:06.668Z,70.00
2017-09-23T15:04:34.106Z,73.10
2017-09-23T15:07:01.533Z,72.70
2017-09-23T15:09:28.975Z,72.80
2017-09-23T15:11:56.406Z,70.50
2017-09-23T15:14:23.968Z,72.30
2017-09-23T15:16:51.633Z,73.00
2017-09-23T15:19:19.082Z,73.40
2017-09-23T15:21:46.568Z,72.20
2017-09-23T15:24:14.006Z,72.50
2017-09-23T15:26:41.458Z,72.70
2017-09-23T15:29:09.017Z,69.70
2017-09-23T15:31:36.455Z,72.80
2017-09-23T15:34:04.008Z,73.50
2017-09-23T15:36:31.436Z,73.90
2017-09-23T15:38:59.652Z,74.70
2017-09-23T15:41:27.088Z,74.70
2017-09-23T15:43:54.540Z,74.10
2017-09-23T15:46:21.976Z,74.40
2017-09-23T15:48:50.168Z,74.00
2017-09-23T15:51:18.371Z,74.90
2017-09-23T15:53:45.804Z,74.80
2017-09-23T15:56:13.243Z,75.20
2017-09-23T15:58:41.449Z,75.30
2017-09-23T16:01:14.620Z,75.10
2017-09-23T16:03:43.824Z,74.10
2017-09-23T16:06:13.402Z,74.10
2017-09-23T16:08:40.832Z,75.00
2017-09-23T16:11:08.335Z,74.90
2017-09-23T16:13:35.786Z,74.90
2017-09-23T16:16:14.472Z,75.00
2017-09-23T16:18:41.921Z,75.00
2017-09-23T16:21:09.493Z,76.70
2017-09-23T16:23:36.997Z,76.60
2017-09-23T16:26:05.214Z,77.20
2017-09-23T16:28:32.636Z,77.20
2017-09-23T16:31:00.096Z,78.20
2017-09-23T16:33:27.535Z,80.80
2017-09-23T16:35:59.352Z,80.00
2017-09-23T16:38:30.085Z,80.00
2017-09-23T16:40:57.529Z,80.40
2017-09-23T16:43:24.960Z,80.10
2017-09-23T16:45:53.980Z,79.80
2017-09-23T16:48:22.513Z,78.40
2017-09-23T16:50:49.998Z,77.50
2017-09-23T16:53:17.441Z,81.20
2017-09-23T16:55:44.911Z,82.20
2017-09-23T16:58:12.344Z,82.30
2017-09-23T17:00:40.564Z,81.50
2017-09-23T17:03:08.017Z,81.50
2017-09-23T17:05:35.458Z,83.10
2017-09-23T17:08:02.907Z,83.70
2017-09-23T17:10:30.341Z,82.70
2017-09-23T17:12:58.559Z,84.40
2017-09-23T17:15:26.004Z,84.50
2017-09-23T17:17:53.424Z,83.80
2017-09-23T17:20:21.632Z,82.30
2017-09-23T17:22:51.212Z,81.80
2017-09-23T17:25:19.415Z,82.30
2017-09-23T17:27:46.860Z,82.20
2017-09-23T17:30:14.373Z,83.00
2017-09-23T17:32:41.814Z,82.80
2017-09-23T17:35:09.256Z,82.80
2017-09-23T17:37:36.695Z,83.50
2017-09-23T17:40:04.129Z,83.40
2017-09-23T17:42:32.339Z,84.80
2017-09-23T17:44:59.776Z,84.70
2017-09-23T17:47:27.216Z,84.00
2017-09-23T17:49:59.760Z,84.10
2017-09-23T17:52:27.213Z,84.10
2017-09-23T17:54:54.649Z,84.70
2017-09-23T17:57:22.093Z,85.00
2017-09-23T17:59:49.612Z,85.70
2017-09-23T18:02:17.047Z,85.30
2017-09-23T18:04:44.498Z,85.70
2017-09-23T18:07:11.941Z,85.90
2017-09-23T18:09:39.492Z,86.10
2017-09-23T18:12:06.940Z,86.70
2017-09-23T18:14:34.382Z,86.30
2017-09-23T18:17:01.832Z,86.90
2017-09-23T18:19:30.029Z,88.80
2017-09-23T18:21:57.475Z,88.70
2017-09-23T18:24:24.917Z,89.00
2017-09-23T18:26:53.303Z,88.60
2017-09-23T18:29:32.997Z,89.90
2017-09-23T18:32:00.445Z,89.90
2017-09-23T18:34:27.876Z,89.70
2017-09-23T18:36:55.316Z,90.00
2017-09-23T18:39:23.520Z,90.50
2017-09-23T18:41:50.984Z,90.50
2017-09-23T18:44:18.416Z,90.60
2017-09-23T18:46:45.930Z,90.60
2017-09-23T18:49:13.369Z,90.50
2017-09-23T18:51:40.849Z,90.40
2017-09-23T18:54:09.089Z,90.40
2017-09-23T18:56:36.534Z,90.30
2017-09-23T18:59:03.973Z,90.30
2017-09-23T19:01:31.424Z,90.20
2017-09-23T19:03:58.898Z,90.10
2017-09-23T19:06:26.337Z,90.30
2017-09-23T19:08:54.549Z,90.70
2017-09-23T19:11:22.022Z,90.60
2017-09-23T19:13:49.444Z,90.80
2017-09-23T19:16:18.816Z,90.90
2017-09-23T19:18:47.144Z,90.80
2017-09-23T19:21:14.802Z,90.80
2017-09-23T19:23:42.232Z,90.70
2017-09-23T19:26:09.682Z,90.80
2017-09-23T19:28:42.217Z,90.80
2017-09-23T19:31:09.660Z,90.80
2017-09-23T19:33:39.185Z,90.90
2017-09-23T19:36:10.228Z,91.10
2017-09-23T19:38:37.655Z,91.10
2017-09-23T19:41:05.085Z,91.10
2017-09-23T19:43:32.537Z,91.20
2017-09-23T19:45:59.972Z,91.40
2017-09-23T19:48:27.424Z,91.40
2017-09-23T19:50:54.861Z,91.40
2017-09-23T19:53:22.313Z,91.60
2017-09-23T19:55:49.753Z,91.50
2017-09-23T19:58:17.201Z,91.50
2017-09-23T20:00:44.641Z,91.60
2017-09-23T20:03:12.081Z,91.60
2017-09-23T20:05:40.292Z,91.60
2017-09-23T20:08:12.524Z,91.60
2017-09-23T20:10:39.974Z,91.60
2017-09-23T20:13:08.192Z,91.60
2017-09-23T20:15:38.992Z,91.60
2017-09-23T20:18:06.477Z,91.60
2017-09-23T20:20:33.870Z,91.60
2017-09-23T20:23:01.313Z,91.60
2017-09-23T20:25:28.761Z,91.50
2017-09-23T20:27:56.212Z,91.40
2017-09-23T20:30:25.684Z,91.40
2017-09-23T20:32:53.130Z,91.40
2017-09-23T20:35:21.345Z,91.50
2017-09-23T20:37:48.789Z,91.40
2017-09-23T20:40:16.225Z,91.50
2017-09-23T20:42:44.424Z,91.50
2017-09-23T20:45:11.871Z,91.40
2017-09-23T20:47:39.317Z,91.40
2017-09-23T20:50:07.526Z,91.50
2017-09-23T20:52:34.970Z,91.40
2017-09-23T20:55:02.410Z,91.80
2017-09-23T20:57:30.616Z,91.60
2017-09-23T20:59:58.104Z,91.60
2017-09-23T21:02:25.537Z,91.60
2017-09-23T21:04:52.989Z,91.80
2017-09-23T21:07:20.425Z,91.80
2017-09-23T21:09:47.868Z,91.80
2017-09-23T21:12:16.076Z,91.50
2017-09-23T21:14:43.525Z,91.50
2017-09-23T21:17:10.965Z,91.70
2017-09-23T21:19:38.410Z,91.60
2017-09-23T21:22:06.613Z,91.50
2017-09-23T21:24:34.064Z,91.50
2017-09-23T21:27:01.501Z,91.30
2017-09-23T21:29:29.721Z,91.20
2017-09-23T21:31:57.165Z,91.20
2017-09-23T21:34:25.368Z,91.00
2017-09-23T21:36:52.811Z,91.00
2017-09-23T21:39:20.252Z,90.90
2017-09-23T21:41:47.773Z,90.90
2017-09-23T21:44:15.213Z,90.80
2017-09-23T21:46:42.655Z,90.70
2017-09-23T21:49:10.088Z,90.70
2017-09-23T21:51:37.628Z,90.60
2017-09-23T21:54:05.061Z,90.60
2017-09-23T21:56:33.273Z,90.40
2017-09-23T21:59:00.734Z,90.40
2017-09-23T22:01:28.188Z,90.40
2017-09-23T22:03:55.630Z,90.40
2017-09-23T22:06:23.071Z,90.40
2017-09-23T22:08:50.528Z,90.50
2017-09-23T22:11:18.751Z,90.40
2017-09-23T22:13:46.224Z,90.40
2017-09-23T22:16:13.665Z,90.40
2017-09-23T22:18:41.114Z,90.30
2017-09-23T22:21:08.554Z,90.30
2017-09-23T22:23:36.001Z,90.40
2017-09-23T22:26:03.447Z,90.30
2017-09-23T22:28:31.713Z,90.30
2017-09-23T22:30:59.136Z,90.30
2017-09-23T22:33:26.588Z,90.30
2017-09-23T22:35:54.020Z,90.30
2017-09-23T22:38:21.449Z,90.30
2017-09-23T22:40:48.896Z,90.30
2017-09-23T22:43:16.336Z,90.50
2017-09-23T22:45:43.787Z,90.60
2017-09-23T22:48:11.213Z,90.60
2017-09-23T22:50:38.661Z,90.60
2017-09-23T22:53:06.105Z,90.60
2017-09-23T22:55:33.648Z,90.70
2017-09-23T22:58:02.937Z,90.60
2017-09-23T23:00:31.165Z,90.60
2017-09-23T23:02:58.593Z,90.60
2017-09-23T23:05:26.041Z,90.80
2017-09-23T23:07:53.480Z,90.70
2017-09-23T23:10:21.702Z,90.80
2017-09-23T23:12:49.133Z,90.80
2017-09-23T23:15:16.585Z,90.80
2017-09-23T23:17:44.018Z,90.80
2017-09-23T23:20:11.469Z,90.90
2017-09-23T23:22:38.908Z,91.00
2017-09-23T23:25:06.348Z,91.00
2017-09-23T23:27:33.801Z,90.90
2017-09-23T23:30:01.240Z,90.90
2017-09-23T23:32:28.691Z,90.90
2017-09-23T23:34:56.113Z,90.90
2017-09-23T23:37:23.557Z,91.00
2017-09-23T23:39:50.997Z,91.00
2017-09-23T23:42:18.444Z,90.90
2017-09-23T23:44:45.897Z,91.00
2017-09-23T23:47:13.336Z,91.10
2017-09-23T23:49:40.775Z,91.00
2017-09-23T23:52:08.992Z,91.20
2017-09-23T23:54:36.431Z,91.20
2017-09-23T23:57:03.873Z,91.10
2017-09-23T23:59:31.314Z,91.10
